createdAt,value
2024-02-07T00:00:17.914Z,421.51938
2024-02-07T00:05:19.782Z,421.51938
2024-02-07T00:10:21.649Z,410.66667
2024-02-07T00:15:23.687Z,403.70149
2024-02-07T00:20:25.363Z,396.94118
2024-02-07T00:25:26.942Z,377.80282
2024-02-07T00:30:34.329Z,380.87943
2024-02-07T00:35:40.431Z,387.16547
2024-02-07T00:40:42.412Z,371.77778
2024-02-07T00:45:44.044Z,357.42282
2024-02-07T00:50:45.642Z,357.42282
2024-02-07T00:55:47.386Z,357.42282
2024-02-07T01:00:49.080Z,377.80282
2024-02-07T01:05:50.616Z,351.94702
2024-02-07T01:10:52.198Z,336.35669
2024-02-07T01:15:53.749Z,346.61438
2024-02-07T01:20:55.237Z,346.61438
2024-02-07T01:25:56.720Z,341.41935
2024-02-07T01:30:58.262Z,336.35669
2024-02-07T01:35:59.737Z,349.26316
2024-02-07T01:41:01.352Z,360.21622
2024-02-07T01:46:02.991Z,354.66667
2024-02-07T01:51:15.455Z,351.94702
2024-02-07T01:56:16.955Z,341.41935
2024-02-07T02:01:18.566Z,360.21622
2024-02-07T02:06:19.961Z,346.61438
2024-02-07T02:11:21.502Z,336.35669
2024-02-07T02:16:23.074Z,315.08434
2024-02-07T02:21:24.574Z,346.61438
2024-02-07T02:26:26.117Z,317.33333
2024-02-07T02:31:27.658Z,344
2024-02-07T02:36:29.161Z,346.61438
2024-02-07T02:41:30.859Z,349.26316
2024-02-07T02:46:32.472Z,341.41935
2024-02-07T02:51:34.060Z,326.6087
2024-02-07T02:56:35.595Z,346.61438
2024-02-07T03:01:37.209Z,349.26316
2024-02-07T03:06:38.819Z,344
2024-02-07T03:11:40.394Z,338.87179
2024-02-07T03:16:42.015Z,341.41935
2024-02-07T03:21:43.553Z,341.41935
2024-02-07T03:26:44.926Z,341.41935
2024-02-07T03:31:46.627Z,341.41935
2024-02-07T03:36:48.280Z,336.35669
2024-02-07T03:41:49.715Z,310.66667
2024-02-07T03:46:51.349Z,331.42138
2024-02-07T03:51:52.940Z,341.41935
2024-02-07T03:56:54.528Z,344
2024-02-07T04:01:56.201Z,338.87179
2024-02-07T04:06:57.834Z,312.86228
2024-02-07T04:11:59.337Z,331.42138
2024-02-07T04:17:00.765Z,317.33333
2024-02-07T04:22:02.251Z,338.87179
2024-02-07T04:27:03.774Z,336.35669
2024-02-07T04:32:05.289Z,341.41935
2024-02-07T04:37:07.412Z,346.61438
2024-02-07T04:42:19.710Z,349.26316
2024-02-07T04:47:21.245Z,349.26316
2024-02-07T04:52:22.802Z,354.66667
2024-02-07T04:57:24.364Z,354.66667
2024-02-07T05:02:25.904Z,360.21622
2024-02-07T05:07:27.485Z,363.04762
2024-02-07T05:12:28.991Z,360.21622
2024-02-07T05:17:30.882Z,354.66667
2024-02-07T05:22:32.649Z,310.66667
2024-02-07T05:27:34.288Z,329
2024-02-07T05:32:35.835Z,346.61438
2024-02-07T05:37:37.430Z,349.26316
2024-02-07T05:42:39.226Z,354.66667
2024-02-07T05:47:40.753Z,354.66667
2024-02-07T05:52:42.287Z,360.21622
2024-02-07T05:57:43.950Z,354.66667
2024-02-07T06:02:45.513Z,346.61438
2024-02-07T06:07:47.225Z,349.26316
2024-02-07T06:12:48.905Z,351.94702
2024-02-07T06:17:50.693Z,354.66667
2024-02-07T06:23:03.271Z,351.94702
2024-02-07T06:28:04.773Z,346.61438
2024-02-07T06:33:06.485Z,338.87179
2024-02-07T06:38:08.003Z,349.26316
2024-02-07T06:43:09.645Z,354.66667
2024-02-07T06:48:11.199Z,357.42282
2024-02-07T06:53:14.330Z,357.42282
2024-02-07T06:58:16.071Z,357.42282
2024-02-07T07:03:17.538Z,354.66667
2024-02-07T07:08:18.972Z,346.61438
2024-02-07T07:13:20.655Z,336.35669
2024-02-07T07:18:22.263Z,344
2024-02-07T07:23:23.976Z,360.21622
2024-02-07T07:28:25.478Z,357.42282
2024-02-07T07:33:27.589Z,351.94702
2024-02-07T07:38:29.559Z,351.94702
2024-02-07T07:43:31.308Z,349.26316
2024-02-07T07:48:33.069Z,333.87342
2024-02-07T07:53:34.838Z,324.24691
2024-02-07T07:58:44.478Z,333.87342
2024-02-07T08:03:50.576Z,317.33333
2024-02-07T08:08:52.045Z,338.87179
2024-02-07T08:13:53.660Z,346.61438
2024-02-07T08:18:56.103Z,346.61438
2024-02-07T08:23:58.014Z,341.41935
2024-02-07T08:28:59.674Z,341.41935
2024-02-07T08:34:01.369Z,351.94702
2024-02-07T08:44:24.307Z,333.87342
2024-02-07T08:49:25.804Z,329
2024-02-07T08:54:27.259Z,349.26316
2024-02-07T08:59:29.565Z,349.26316
2024-02-07T09:04:42.619Z,351.94702
2024-02-07T09:09:44.514Z,349.26316
2024-02-07T09:14:46.076Z,349.26316
2024-02-07T09:19:47.587Z,351.94702
2024-02-07T09:24:59.579Z,354.66667
2024-02-07T09:30:08.011Z,354.66667
2024-02-07T09:35:13.883Z,351.94702
2024-02-07T09:40:15.647Z,346.61438
2024-02-07T09:45:17.190Z,346.61438
2024-02-07T09:50:18.997Z,344
2024-02-07T09:55:20.809Z,344
2024-02-07T10:00:22.466Z,349.26316
2024-02-07T10:05:24.431Z,349.26316
2024-02-07T10:10:26.045Z,349.26316
2024-02-07T10:15:27.472Z,346.61438
2024-02-07T10:20:28.856Z,346.61438
2024-02-07T10:25:30.462Z,344
2024-02-07T10:30:32.278Z,344
2024-02-07T10:35:34.129Z,338.87179
2024-02-07T10:40:47.157Z,346.61438
2024-02-07T10:45:48.779Z,344
2024-02-07T10:50:50.439Z,346.61438
2024-02-07T10:55:52.087Z,349.26316
2024-02-07T11:00:53.656Z,336.35669
2024-02-07T11:05:55.642Z,349.26316
2024-02-07T11:10:57.455Z,351.94702
2024-02-07T11:15:59.048Z,349.26316
2024-02-07T11:21:00.500Z,349.26316
2024-02-07T11:26:02.242Z,349.26316
2024-02-07T11:31:03.923Z,351.94702
2024-02-07T11:36:05.530Z,349.26316
2024-02-07T11:41:07.356Z,351.94702
2024-02-07T11:46:08.941Z,351.94702
2024-02-07T11:51:10.519Z,351.94702
2024-02-07T11:56:12.238Z,354.66667
2024-02-07T12:01:14.391Z,351.94702
2024-02-07T12:06:16.059Z,351.94702
2024-02-07T12:11:17.743Z,351.94702
2024-02-07T12:16:19.182Z,351.94702
2024-02-07T12:21:23.435Z,349.26316
2024-02-07T12:26:26.907Z,351.94702
2024-02-07T12:31:28.387Z,349.26316
2024-02-07T12:36:29.825Z,349.26316
2024-02-07T12:41:31.414Z,349.26316
2024-02-07T12:46:33.014Z,346.61438
2024-02-07T12:51:34.729Z,344
2024-02-07T12:56:36.365Z,338.87179
2024-02-07T13:01:37.885Z,336.35669
2024-02-07T13:06:39.515Z,336.35669
2024-02-07T13:11:41.020Z,333.87342
2024-02-07T13:16:42.994Z,331.42138
2024-02-07T13:21:44.534Z,324.24691
2024-02-07T13:26:46.024Z,326.6087
2024-02-07T13:31:47.641Z,338.87179
2024-02-07T13:36:49.327Z,338.87179
2024-02-07T13:41:50.902Z,336.35669
2024-02-07T13:46:52.800Z,333.87342
2024-02-07T13:51:54.390Z,336.35669
2024-02-07T13:56:55.864Z,336.35669
2024-02-07T14:01:57.748Z,341.41935
2024-02-07T14:06:59.239Z,338.87179
2024-02-07T14:12:00.955Z,336.35669
2024-02-07T14:17:02.615Z,333.87342
2024-02-07T14:22:04.807Z,331.42138
2024-02-07T14:27:06.453Z,326.6087
2024-02-07T14:32:07.943Z,326.6087
2024-02-07T14:37:09.355Z,338.87179
2024-02-07T14:42:11.052Z,336.35669
2024-02-07T14:47:12.558Z,333.87342
2024-02-07T14:52:16.364Z,338.87179
2024-02-07T14:57:18.529Z,336.35669
2024-02-07T15:02:20.476Z,338.87179
2024-02-07T15:07:22.264Z,341.41935
2024-02-07T15:12:23.943Z,341.41935
2024-02-07T15:17:25.506Z,336.35669
2024-02-07T15:22:27.198Z,324.24691
2024-02-07T15:27:28.866Z,326.6087
2024-02-07T15:32:30.348Z,319.60976
2024-02-07T15:37:32.029Z,306.35294
2024-02-07T15:42:33.758Z,304.23392
2024-02-07T15:47:35.376Z,306.35294
2024-02-07T15:52:37.391Z,310.66667
2024-02-07T15:57:39.206Z,317.33333
2024-02-07T16:02:41.191Z,319.60976
2024-02-07T16:07:42.968Z,329
2024-02-07T16:12:44.677Z,329
2024-02-07T16:17:46.170Z,329
2024-02-07T16:22:47.812Z,331.42138
2024-02-07T16:27:49.405Z,333.87342
2024-02-07T16:32:50.928Z,333.87342
2024-02-07T16:37:52.423Z,333.87342
2024-02-07T16:42:54.371Z,331.42138
2024-02-07T16:47:56.118Z,331.42138
2024-02-07T16:52:57.944Z,329
2024-02-07T16:57:59.663Z,336.35669
2024-02-07T17:03:01.241Z,341.41935
2024-02-07T17:08:03.081Z,349.26316
2024-02-07T17:13:05.095Z,349.26316
2024-02-07T17:18:07.189Z,354.66667
2024-02-07T17:23:09.322Z,351.94702
2024-02-07T17:28:10.908Z,346.61438
2024-02-07T17:33:12.753Z,341.41935
2024-02-07T17:38:14.564Z,336.35669
2024-02-07T17:43:16.119Z,331.42138
2024-02-07T17:48:17.905Z,336.35669
2024-02-07T17:53:19.842Z,344
2024-02-07T17:58:21.710Z,341.41935
2024-02-07T18:03:23.516Z,331.42138
2024-02-07T18:08:25.414Z,326.6087
2024-02-07T18:13:26.965Z,317.33333
2024-02-07T18:18:28.854Z,317.33333
2024-02-07T18:23:30.568Z,319.60976
2024-02-07T18:28:32.349Z,310.66667
2024-02-07T18:33:34.181Z,315.08434
2024-02-07T18:38:35.853Z,312.86228
2024-02-07T18:43:37.367Z,319.60976
2024-02-07T18:48:39.429Z,319.60976
2024-02-07T18:53:41.010Z,319.60976
2024-02-07T18:58:42.685Z,317.33333
2024-02-07T19:03:44.546Z,315.08434
2024-02-07T19:08:46.237Z,306.35294
2024-02-07T19:13:47.885Z,304.23392
2024-02-07T19:18:49.899Z,296
2024-02-07T19:23:51.953Z,298.02299
2024-02-07T19:28:54.232Z,300.06936
2024-02-07T19:33:55.973Z,310.66667
2024-02-07T19:38:57.678Z,310.66667
2024-02-07T19:43:59.918Z,331.42138
2024-02-07T19:49:01.690Z,321.91411
2024-02-07T19:54:03.231Z,336.35669
2024-02-07T19:59:04.997Z,321.91411
2024-02-07T20:04:06.998Z,308.49704
2024-02-07T20:09:08.616Z,310.66667
2024-02-07T20:14:10.296Z,302.13953
2024-02-07T20:19:12.317Z,300.06936
2024-02-07T20:24:14.120Z,321.91411
2024-02-07T20:29:15.875Z,331.42138
2024-02-07T20:34:17.407Z,336.35669
2024-02-07T20:39:19.282Z,349.26316
2024-02-07T20:44:20.952Z,360.21622
2024-02-07T20:49:22.814Z,368.82759
2024-02-07T20:54:24.598Z,363.04762
2024-02-07T20:59:26.552Z,365.91781
2024-02-07T21:04:28.439Z,377.80282
2024-02-07T21:09:30.318Z,360.21622
2024-02-07T21:14:31.889Z,357.42282
2024-02-07T21:19:33.663Z,390.37681
2024-02-07T21:24:35.507Z,387.16547
2024-02-07T21:29:37.162Z,387.16547
2024-02-07T21:34:38.740Z,365.91781
2024-02-07T21:39:40.466Z,341.41935
2024-02-07T21:44:42.165Z,349.26316
2024-02-07T21:49:43.915Z,400.2963
2024-02-07T21:54:45.567Z,396.94118
2024-02-07T21:59:47.191Z,384
2024-02-07T22:04:48.963Z,417.84615
2024-02-07T22:09:50.633Z,407.15789
2024-02-07T22:14:52.355Z,436.8
2024-02-07T22:19:54.024Z,400.2963
2024-02-07T22:24:56.153Z,421.51938
2024-02-07T22:29:57.676Z,390.37681
2024-02-07T22:34:59.299Z,425.25
2024-02-07T22:40:00.802Z,457.33333
2024-02-07T22:45:02.441Z,417.84615
2024-02-07T22:50:04.079Z,407.15789
2024-02-07T22:55:05.613Z,417.84615
2024-02-07T23:00:07.128Z,407.15789
2024-02-07T23:05:08.661Z,414.22901
2024-02-07T23:10:10.166Z,387.16547
2024-02-07T23:15:11.648Z,374.76923
2024-02-07T23:20:13.632Z,380.87943
2024-02-07T23:25:15.194Z,374.76923
2024-02-07T23:30:16.623Z,357.42282
2024-02-07T23:35:18.486Z,344
2024-02-07T23:40:19.920Z,344
2024-02-07T23:45:21.422Z,338.87179
2024-02-07T23:50:22.961Z,336.35669
2024-02-07T23:55:24.454Z,344
